Time;durP1;ratioP1;P1;durP2;ratioP2;P2;SDS_P1;SDS_P2;PMS_P1;PMS_P2;Temp;Humidity;BMP_temperature;BMP_pressure;BME280_temperature;BME280_humidity;BME280_pressure;Samples;Min_cycle;Max_cycle;Signal;HPM_P1;HPM_P2
2022/04/17 00:01:44;;;;;;;;;;;;;;;16.99;51.75;101845.12;4414173;32;19950;-70
2022/04/17 00:04:14;;;;;;;;;;;;;;;16.83;52.06;101839.56;4421234;32;20006;-70
2022/04/17 00:06:40;;;;;;;;;;;;;;;16.76;52.29;101837.78;4419496;32;20326;-70
2022/04/17 00:09:05;;;;;;;;;;;;;;;17.03;51.53;101838.06;4424887;32;19958;-70
2022/04/17 00:11:33;;;;;;;;;;;;;;;16.97;51.72;101839.91;4420079;32;19998;-70
2022/04/17 00:13:59;;;;;;;;;;;;;;;16.87;52.02;101838.19;4418822;32;20400;-70
2022/04/17 00:16:25;;;;;;;;;;;;;;;16.70;52.56;101845.28;4418508;32;19968;-70
2022/04/17 00:18:51;;;;;;;;;;;;;;;16.59;53.17;101841.16;4415590;32;19954;-70
2022/04/17 00:21:16;;;;;;;;;;;;;;;16.49;53.33;101834.56;4413172;32;19954;-70
2022/04/17 00:23:44;;;;;;;;;;;;;;;16.53;53.22;101828.75;4415768;32;20011;-70
2022/04/17 00:26:10;;;;;;;;;;;;;;;16.48;53.48;101832.19;4414174;32;19979;-70
2022/04/17 00:28:35;;;;;;;;;;;;;;;16.43;53.23;101833.53;4404656;32;19997;-70
2022/04/17 00:31:01;;;;;;;;;;;;;;;16.34;53.54;101830.53;4413549;32;19950;-70
2022/04/17 00:33:26;;;;;;;;;;;;;;;16.31;53.28;101825.75;4413507;32;19946;-70
2022/04/17 00:35:52;;;;;;;;;;;;;;;16.22;53.33;101824.81;4412942;32;20030;-70
2022/04/17 00:38:18;;;;;;;;;;;;;;;16.21;53.40;101818.34;4417895;32;19970;-70
2022/04/17 00:40:43;;;;;;;;;;;;;;;16.23;53.41;101821.53;4420057;32;20012;-70
2022/04/17 00:43:25;;;;;;;;;;;;;;;16.18;53.53;101824.94;4416603;32;19953;-70
2022/04/17 00:45:51;;;;;;;;;;;;;;;16.06;53.33;101820.03;4422306;32;19962;-70
2022/04/17 00:48:17;;;;;;;;;;;;;;;16.04;53.88;101821.72;4416578;32;19961;-70
2022/04/17 00:50:44;;;;;;;;;;;;;;;16.05;53.35;101821.28;4415980;32;20308;-70
2022/04/17 00:53:09;;;;;;;;;;;;;;;15.82;53.80;101813.00;4412698;32;19980;-70
2022/04/17 00:55:35;;;;;;;;;;;;;;;15.90;53.33;101815.19;4414611;32;19977;-70
2022/04/17 00:58:01;;;;;;;;;;;;;;;15.77;53.47;101811.53;4412899;32;20364;-70
2022/04/17 01:00:27;;;;;;;;;;;;;;;15.89;53.00;101812.81;4411507;32;19958;-70
2022/04/17 01:02:52;;;;;;;;;;;;;;;15.88;52.87;101805.53;4413248;32;20259;-70
2022/04/17 01:05:19;;;;;;;;;;;;;;;15.96;52.21;101804.09;4414028;32;19953;-70
2022/04/17 01:07:46;;;;;;;;;;;;;;;16.07;52.19;101796.03;4414535;32;20019;-70
2022/04/17 01:10:12;;;;;;;;;;;;;;;16.06;51.79;101800.16;4415469;32;19969;-70
2022/04/17 01:12:37;;;;;;;;;;;;;;;16.04;51.79;101796.16;4412951;32;19945;-70
2022/04/17 01:15:03;;;;;;;;;;;;;;;15.82;52.34;101799.63;4413334;32;20004;-70
2022/04/17 01:17:28;;;;;;;;;;;;;;;15.84;52.21;101794.28;4414714;32;20413;-70
2022/04/17 01:19:54;;;;;;;;;;;;;;;16.00;51.99;101790.59;4414258;32;20408;-70
2022/04/17 01:22:20;;;;;;;;;;;;;;;15.92;52.00;101784.31;4413738;32;20011;-70
2022/04/17 01:27:32;;;;;;;;;;;;;;;15.76;52.68;101780.75;4411800;32;20012;-70
2022/04/17 01:29:58;;;;;;;;;;;;;;;15.63;52.67;101788.44;4412929;32;20325;-70
2022/04/17 01:32:23;;;;;;;;;;;;;;;15.46;52.92;101775.50;4412344;32;20442;-70
2022/04/17 01:34:49;;;;;;;;;;;;;;;15.30;53.11;101776.34;4413950;32;20365;-70
2022/04/17 01:37:15;;;;;;;;;;;;;;;15.52;52.55;101779.41;4414044;32;20330;-70
2022/04/17 01:39:41;;;;;;;;;;;;;;;15.30;52.84;101776.34;4412359;32;19961;-70
2022/04/17 01:42:07;;;;;;;;;;;;;;;15.25;52.69;101778.91;4412310;32;19957;-70
2022/04/17 01:44:33;;;;;;;;;;;;;;;15.35;52.12;101764.47;4410761;32;20320;-70
2022/04/17 01:46:59;;;;;;;;;;;;;;;15.40;51.69;101766.75;4402436;32;20011;-70
2022/04/17 01:49:25;;;;;;;;;;;;;;;15.35;51.99;101763.66;4412433;32;19958;-70
2022/04/17 01:51:52;;;;;;;;;;;;;;;15.32;52.20;101761.72;4410847;32;19985;-70
2022/04/17 01:54:18;;;;;;;;;;;;;;;15.43;52.02;101765.87;4412049;32;19957;-70
2022/04/17 01:56:46;;;;;;;;;;;;;;;15.47;51.96;101768.63;4414948;32;19967;-70
2022/04/17 01:59:12;;;;;;;;;;;;;;;15.40;52.21;101763.16;4412106;32;20241;-70
2022/04/17 02:01:38;;;;;;;;;;;;;;;15.45;52.05;101754.06;4412981;32;20001;-70
2022/04/17 02:04:04;;;;;;;;;;;;;;;15.39;52.03;101756.66;4425840;32;19968;-70
2022/04/17 02:06:30;;;;;;;;;;;;;;;15.43;52.19;101750.88;4413996;32;19977;-70
2022/04/17 02:08:56;;;;;;;;;;;;;;;15.28;52.56;101744.00;4413067;32;19949;-70
2022/04/17 02:11:22;;;;;;;;;;;;;;;15.34;52.06;101747.88;4411623;32;20408;-70
2022/04/17 02:13:49;;;;;;;;;;;;;;;15.39;52.02;101751.00;4412615;32;19949;-70
2022/04/17 02:16:15;;;;;;;;;;;;;;;15.29;51.92;101746.38;4416469;32;19954;-70
2022/04/17 02:18:42;;;;;;;;;;;;;;;15.42;51.51;101744.44;4412091;32;19965;-70
2022/04/17 02:21:08;;;;;;;;;;;;;;;15.42;51.71;101749.28;4401259;32;20039;-70
2022/04/17 02:23:33;;;;;;;;;;;;;;;15.45;51.77;101748.41;4410362;32;20011;-70
2022/04/17 02:26:00;;;;;;;;;;;;;;;15.45;51.85;101746.38;4426204;32;19972;-70
2022/04/17 02:28:25;;;;;;;;;;;;;;;15.45;51.72;101748.41;4421709;32;20264;-70
2022/04/17 02:30:51;;;;;;;;;;;;;;;15.41;51.52;101739.97;4411881;32;19964;-70
2022/04/17 02:33:17;;;;;;;;;;;;;;;15.45;51.69;101734.22;4412367;32;19957;-70
2022/04/17 02:35:42;;;;;;;;;;;;;;;15.48;51.63;101736.97;4418649;32;19964;-70
2022/04/17 02:38:08;;;;;;;;;;;;;;;15.53;51.29;101732.78;4412859;32;19973;-70
2022/04/17 02:40:34;;;;;;;;;;;;;;;15.58;51.25;101729.38;4412359;32;20012;-70
2022/04/17 02:42:59;;;;;;;;;;;;;;;15.67;51.11;101726.69;4415713;32;20386;-70
2022/04/17 02:45:26;;;;;;;;;;;;;;;15.79;50.61;101723.88;4411838;32;20382;-70
2022/04/17 02:47:52;;;;;;;;;;;;;;;15.85;50.19;101727.75;4411153;32;20021;-70
2022/04/17 02:50:18;;;;;;;;;;;;;;;15.87;49.68;101722.41;4413204;32;20041;-70
2022/04/17 02:52:45;;;;;;;;;;;;;;;15.91;49.77;101725.16;4415470;32;20243;-70
2022/04/17 02:55:10;;;;;;;;;;;;;;;15.83;49.69;101721.72;4423624;32;19975;-70
2022/04/17 02:57:36;;;;;;;;;;;;;;;15.79;49.51;101715.37;4420741;32;20004;-70
2022/04/17 03:00:03;;;;;;;;;;;;;;;15.65;49.51;101712.94;4413598;32;19954;-71
2022/04/17 03:05:45;;;;;;;;;;;;;;;15.50;49.74;101710.97;4413997;32;19991;-70
2022/04/17 03:07:59;;;;;;;;;;;;;;;15.35;49.92;101706.91;4415203;32;20373;-70
2022/04/17 03:10:25;;;;;;;;;;;;;;;15.22;50.46;101706.84;4424217;32;20234;-70
2022/04/17 03:12:51;;;;;;;;;;;;;;;15.18;50.23;101703.34;4424837;32;19965;-70
2022/04/17 03:15:16;;;;;;;;;;;;;;;15.08;50.65;101704.44;4403888;32;20001;-70
2022/04/17 03:17:42;;;;;;;;;;;;;;;15.06;50.42;101698.41;4412842;32;19968;-70
2022/04/17 03:20:08;;;;;;;;;;;;;;;14.80;51.33;101693.03;4402516;32;19953;-70
2022/04/17 03:22:33;;;;;;;;;;;;;;;14.82;51.43;101684.91;4412938;32;20413;-70
2022/04/17 03:25:00;;;;;;;;;;;;;;;14.81;51.42;101683.28;4414529;32;20012;-70
2022/04/17 03:27:28;;;;;;;;;;;;;;;14.74;51.71;101692.78;4408580;32;19960;-70
2022/04/17 03:29:54;;;;;;;;;;;;;;;14.60;52.05;101681.03;4413930;32;19985;-70
2022/04/17 03:32:19;;;;;;;;;;;;;;;14.65;52.00;101684.13;4414099;32;19961;-70
2022/04/17 03:34:45;;;;;;;;;;;;;;;14.62;51.88;101676.50;4412800;32;20392;-70
2022/04/17 03:37:10;;;;;;;;;;;;;;;14.66;51.89;101667.94;4415114;32;19957;-70
2022/04/17 03:39:36;;;;;;;;;;;;;;;14.59;52.09;101668.09;4414105;32;19968;-70
2022/04/17 03:42:02;;;;;;;;;;;;;;;14.50;52.28;101665.88;4413343;32;20000;-70
2022/04/17 03:44:28;;;;;;;;;;;;;;;14.50;52.21;101656.59;4414195;32;19965;-70
2022/04/17 03:46:54;;;;;;;;;;;;;;;14.45;52.40;101662.81;4413444;32;20033;-70
2022/04/17 03:49:19;;;;;;;;;;;;;;;14.44;52.37;101658.34;4414856;32;19987;-70
2022/04/17 03:51:45;;;;;;;;;;;;;;;14.38;52.58;101651.63;4414461;32;19969;-70
2022/04/17 03:54:10;;;;;;;;;;;;;;;14.32;52.74;101651.38;4412964;32;20727;-70
2022/04/17 03:56:36;;;;;;;;;;;;;;;14.31;52.77;101654.66;4414660;32;19950;-70
2022/04/17 03:59:01;;;;;;;;;;;;;;;14.27;52.85;101653.94;4412763;32;20014;-70
2022/04/17 04:01:27;;;;;;;;;;;;;;;14.20;52.99;101640.72;4413791;32;19954;-70
2022/04/17 04:03:54;;;;;;;;;;;;;;;14.18;53.22;101653.72;4426346;32;19973;-70
2022/04/17 04:06:21;;;;;;;;;;;;;;;14.14;53.52;101641.72;4415548;32;19953;-70
2022/04/17 04:08:49;;;;;;;;;;;;;;;14.12;53.50;101644.16;4415033;32;19958;-70
2022/04/17 04:11:15;;;;;;;;;;;;;;;14.06;53.81;101641.09;4412263;32;20013;-70
2022/04/17 04:13:42;;;;;;;;;;;;;;;14.02;53.88;101634.69;4412650;32;20007;-70
2022/04/17 04:16:09;;;;;;;;;;;;;;;13.94;54.15;101628.41;4402753;32;19958;-70
2022/04/17 04:18:34;;;;;;;;;;;;;;;13.89;54.11;101634.59;4414009;32;19973;-70
2022/04/17 04:21:00;;;;;;;;;;;;;;;13.81;54.22;101627.50;4413558;32;19966;-70
2022/04/17 04:23:26;;;;;;;;;;;;;;;13.55;55.00;101624.88;4413806;32;19953;-70
2022/04/17 04:25:52;;;;;;;;;;;;;;;13.60;54.74;101622.31;4413220;32;20303;-70
2022/04/17 04:28:33;;;;;;;;;;;;;;;13.59;55.05;101623.56;4419752;32;20409;-70
2022/04/17 04:30:59;;;;;;;;;;;;;;;13.61;54.88;101623.13;4414786;32;20681;-70
2022/04/17 04:33:25;;;;;;;;;;;;;;;13.62;54.88;101619.06;4422389;32;19954;-70
2022/04/17 04:35:51;;;;;;;;;;;;;;;13.59;55.01;101619.94;4414800;32;19971;-70
2022/04/17 04:38:17;;;;;;;;;;;;;;;13.57;55.13;101619.59;4413517;32;19995;-70
2022/04/17 04:40:42;;;;;;;;;;;;;;;13.55;55.33;101617.19;4413613;32;19957;-70
2022/04/17 04:43:08;;;;;;;;;;;;;;;13.53;55.35;101614.00;4414112;32;19953;-70
2022/04/17 04:49:29;;;;;;;;;;;;;;;13.57;55.40;101613.94;4414974;32;19949;-70
2022/04/17 04:51:04;;;;;;;;;;;;;;;13.55;55.59;101614.38;4422751;32;19979;-70
2022/04/17 04:53:30;;;;;;;;;;;;;;;13.53;55.53;101614.00;4417035;32;20403;-70
2022/04/17 04:55:55;;;;;;;;;;;;;;;13.58;55.50;101607.84;4413965;32;20287;-70
2022/04/17 04:58:21;;;;;;;;;;;;;;;13.58;55.65;101613.50;4422593;32;20434;-70
2022/04/17 05:00:46;;;;;;;;;;;;;;;13.51;55.72;101610.84;4414502;32;20430;-70
2022/04/17 05:03:11;;;;;;;;;;;;;;;13.52;55.66;101612.41;4411788;32;20324;-70
2022/04/17 05:05:38;;;;;;;;;;;;;;;13.55;55.73;101613.56;4427226;32;20005;-70
2022/04/17 05:08:04;;;;;;;;;;;;;;;13.42;56.04;101601.34;4419374;32;19993;-70
2022/04/17 05:10:29;;;;;;;;;;;;;;;13.36;56.37;101605.91;4413776;32;20001;-70
2022/04/17 05:12:56;;;;;;;;;;;;;;;13.35;56.39;101602.28;4412410;32;19993;-70
2022/04/17 05:15:22;;;;;;;;;;;;;;;13.35;56.45;101602.28;4412163;32;20613;-70
2022/04/17 05:17:48;;;;;;;;;;;;;;;13.27;56.74;101600.84;4410123;32;19986;-70
2022/04/17 05:20:14;;;;;;;;;;;;;;;13.29;57.02;101597.59;4398900;32;19988;-70
2022/04/17 05:22:40;;;;;;;;;;;;;;;13.41;56.41;101600.53;4410759;32;19961;-70
2022/04/17 05:25:06;;;;;;;;;;;;;;;13.45;56.33;101598.44;4413276;32;19976;-70
2022/04/17 05:27:32;;;;;;;;;;;;;;;13.52;55.98;101594.66;4421028;32;19953;-70
2022/04/17 05:29:58;;;;;;;;;;;;;;;13.57;56.07;101596.97;4421759;32;20052;-70
2022/04/17 05:32:24;;;;;;;;;;;;;;;13.60;55.58;101596.09;4414235;32;19954;-70
2022/04/17 05:34:50;;;;;;;;;;;;;;;13.67;55.06;101595.91;4412088;32;20102;-70
2022/04/17 05:37:15;;;;;;;;;;;;;;;13.62;55.60;101587.94;4413298;32;19974;-70
2022/04/17 05:39:41;;;;;;;;;;;;;;;13.70;55.64;101595.03;4411401;32;19961;-70
2022/04/17 05:42:07;;;;;;;;;;;;;;;13.76;55.36;101593.28;4411610;32;20021;-70
2022/04/17 05:44:35;;;;;;;;;;;;;;;13.82;54.97;101589.50;4412418;32;20042;-70
2022/04/17 05:47:01;;;;;;;;;;;;;;;13.80;54.83;101589.13;4412246;32;19968;-70
2022/04/17 05:49:27;;;;;;;;;;;;;;;13.88;54.50;101587.75;4412682;32;20326;-70
2022/04/17 05:51:53;;;;;;;;;;;;;;;13.97;54.51;101590.72;4411654;32;19949;-70
2022/04/17 05:54:18;;;;;;;;;;;;;;;13.91;54.55;101586.88;4422026;32;19972;-70
2022/04/17 05:56:44;;;;;;;;;;;;;;;13.95;54.55;101595.25;4415859;32;19993;-70
2022/04/17 05:59:10;;;;;;;;;;;;;;;13.99;54.47;101595.94;4413410;32;20013;-70
2022/04/17 06:01:35;;;;;;;;;;;;;;;13.96;54.54;101591.16;4412725;32;19965;-70
2022/04/17 06:04:02;;;;;;;;;;;;;;;13.89;54.63;101594.19;4422923;32;19977;-70
2022/04/17 06:06:28;;;;;;;;;;;;;;;13.95;54.56;101590.41;4414165;32;19984;-70
2022/04/17 06:08:53;;;;;;;;;;;;;;;14.02;54.30;101590.22;4412059;32;20450;-70
2022/04/17 06:11:19;;;;;;;;;;;;;;;14.24;54.10;101589.72;4411463;32;19972;-70
2022/04/17 06:13:44;;;;;;;;;;;;;;;14.29;54.15;101595.63;4410427;32;19962;-70
2022/04/17 06:16:10;;;;;;;;;;;;;;;14.43;53.50;101585.97;4410324;32;19977;-70
2022/04/17 06:18:36;;;;;;;;;;;;;;;14.40;53.51;101586.88;4412210;32;19968;-70
2022/04/17 06:21:02;;;;;;;;;;;;;;;14.62;52.97;101588.69;4412438;32;20347;-70
2022/04/17 06:23:27;;;;;;;;;;;;;;;14.67;53.05;101588.12;4411853;32;19958;-70
2022/04/17 06:25:53;;;;;;;;;;;;;;;14.88;52.41;101595.28;4417773;32;19958;-70
2022/04/17 06:28:19;;;;;;;;;;;;;;;14.76;52.72;101588.28;4420873;32;20038;-70
2022/04/17 06:30:45;;;;;;;;;;;;;;;14.92;52.24;101584.62;4413832;32;20376;-70
2022/04/17 06:33:10;;;;;;;;;;;;;;;14.85;52.25;101582.75;4414382;32;20415;-70
2022/04/17 06:35:36;;;;;;;;;;;;;;;15.04;51.87;101578.97;4414495;32;19972;-70
2022/04/17 06:38:02;;;;;;;;;;;;;;;15.07;51.91;101575.25;4414233;32;20022;-70
2022/04/17 06:40:29;;;;;;;;;;;;;;;15.15;51.72;101581.50;4415308;32;19957;-70
2022/04/17 06:42:56;;;;;;;;;;;;;;;15.28;51.07;101574.62;4415729;32;20299;-70
2022/04/17 06:45:22;;;;;;;;;;;;;;;15.26;51.17;101576.31;4417805;32;19949;-70
2022/04/17 06:47:47;;;;;;;;;;;;;;;15.42;50.61;101574.22;4416899;32;19961;-70
2022/04/17 06:50:14;;;;;;;;;;;;;;;15.43;50.60;101566.50;4416112;32;20069;-70
2022/04/17 06:52:40;;;;;;;;;;;;;;;15.28;50.95;101566.09;4413021;32;19958;-70
2022/04/17 06:55:08;;;;;;;;;;;;;;;15.61;50.45;101563.91;4415641;32;19953;-70
2022/04/17 06:57:34;;;;;;;;;;;;;;;15.76;49.52;101560.16;4417378;32;19984;-70
2022/04/17 07:00:09;;;;;;;;;;;;;;;15.77;49.63;101555.28;4414244;32;19964;-70
2022/04/17 07:02:35;;;;;;;;;;;;;;;15.87;49.34;101557.00;4413108;32;19968;-70
2022/04/17 07:05:01;;;;;;;;;;;;;;;15.99;49.17;101551.28;4424434;32;19972;-70
2022/04/17 07:07:27;;;;;;;;;;;;;;;16.15;48.59;101550.38;4415455;32;19958;-70
2022/04/17 07:09:54;;;;;;;;;;;;;;;16.19;48.76;101551.03;4416578;32;19954;-70
2022/04/17 07:12:20;;;;;;;;;;;;;;;16.33;48.64;101556.22;4414524;32;19958;-70
2022/04/17 07:14:47;;;;;;;;;;;;;;;16.27;48.50;101543.84;4413666;32;19968;-70
2022/04/17 07:17:13;;;;;;;;;;;;;;;16.51;48.04;101544.25;4416546;32;20320;-70
2022/04/17 07:19:40;;;;;;;;;;;;;;;16.74;47.15;101538.94;4413052;32;19991;-70
2022/04/17 07:22:06;;;;;;;;;;;;;;;16.83;47.16;101541.84;4413382;32;19958;-70
2022/04/17 07:24:31;;;;;;;;;;;;;;;16.88;46.94;101532.72;4414135;32;19988;-70
2022/04/17 07:26:58;;;;;;;;;;;;;;;16.94;46.73;101528.00;4416502;32;19953;-70
2022/04/17 07:29:23;;;;;;;;;;;;;;;16.12;48.29;101528.56;4413613;32;20408;-70
2022/04/17 07:31:50;;;;;;;;;;;;;;;16.07;48.82;101528.34;4415340;32;19969;-70
2022/04/17 07:34:17;;;;;;;;;;;;;;;16.12;48.76;101530.59;4401230;32;20387;-70
2022/04/17 07:36:42;;;;;;;;;;;;;;;16.57;47.84;101517.63;4413384;32;19950;-70
2022/04/17 07:39:08;;;;;;;;;;;;;;;16.70;47.76;101524.06;4415538;32;19968;-70
2022/04/17 07:41:34;;;;;;;;;;;;;;;16.90;47.15;101518.03;4415112;32;20425;-70
2022/04/17 07:43:59;;;;;;;;;;;;;;;16.93;46.99;101514.25;4412668;32;19957;-70
2022/04/17 07:46:26;;;;;;;;;;;;;;;16.93;47.11;101512.22;4406752;32;19961;-70
2022/04/17 07:48:51;;;;;;;;;;;;;;;16.98;47.13;101511.63;4429147;32;19992;-70
2022/04/17 07:51:17;;;;;;;;;;;;;;;17.20;46.70;101518.09;4426098;32;19962;-70
2022/04/17 07:53:42;;;;;;;;;;;;;;;17.19;46.63;101512.88;4414326;32;19953;-70
2022/04/17 07:56:10;;;;;;;;;;;;;;;17.22;46.83;101511.94;4413325;32;19961;-70
2022/04/17 07:58:37;;;;;;;;;;;;;;;17.31;46.40;101501.37;4418301;32;19965;-70
2022/04/17 08:01:17;;;;;;;;;;;;;;;17.31;46.62;101509.91;4414483;32;19954;-70
2022/04/17 08:06:20;;;;;;;;;;;;;;;17.68;46.31;101494.59;3955718;32;15722509;-71
2022/04/17 08:08:46;;;;;;;;;;;;;;;17.68;46.31;101494.59;4437245;32;20028;-71
2022/04/17 08:11:11;;;;;;;;;;;;;;;17.15;47.06;101495.91;4433038;32;19996;-71
2022/04/17 08:13:42;;;;;;;;;;;;;;;17.40;46.58;101490.03;4436883;32;20391;-71
2022/04/17 08:16:08;;;;;;;;;;;;;;;17.39;46.93;101485.63;4432649;32;19949;-71
2022/04/17 08:18:34;;;;;;;;;;;;;;;17.64;46.36;101476.06;4440768;32;20372;-71
2022/04/17 08:21:00;;;;;;;;;;;;;;;17.80;45.80;101479.44;4439659;32;20374;-71
2022/04/17 08:23:26;;;;;;;;;;;;;;;17.95;45.34;101473.16;4424097;32;19965;-71
2022/04/17 08:25:52;;;;;;;;;;;;;;;18.52;44.13;101472.28;4425544;32;20016;-70
2022/04/17 08:28:17;;;;;;;;;;;;;;;18.88;43.31;101470.19;4434699;32;19961;-70
2022/04/17 08:30:43;;;;;;;;;;;;;;;19.07;42.62;101466.03;4433382;32;19946;-71
2022/04/17 08:33:09;;;;;;;;;;;;;;;19.30;42.68;101465.31;4430939;32;19958;-71
2022/04/17 08:35:35;;;;;;;;;;;;;;;19.48;42.16;101465.25;4427729;32;19961;-70
2022/04/17 08:38:01;;;;;;;;;;;;;;;19.66;41.65;101470.87;4424953;32;19957;-70
2022/04/17 08:40:28;;;;;;;;;;;;;;;19.77;41.65;101471.16;4424311;32;19950;-70
2022/04/17 08:42:54;;;;;;;;;;;;;;;19.91;41.39;101468.84;4427003;32;20010;-70
2022/04/17 08:45:20;;;;;;;;;;;;;;;20.13;40.67;101469.34;4429494;32;19953;-70
2022/04/17 08:47:46;;;;;;;;;;;;;;;20.60;40.10;101469.28;4426367;32;20059;-71
2022/04/17 08:50:12;;;;;;;;;;;;;;;20.85;39.23;101469.50;4440107;32;19995;-71
2022/04/17 08:52:38;;;;;;;;;;;;;;;21.13;38.65;101467.97;4434624;32;20015;-71
2022/04/17 08:55:05;;;;;;;;;;;;;;;21.53;37.92;101465.25;4442091;32;19953;-71
2022/04/17 08:57:30;;;;;;;;;;;;;;;21.51;37.73;101470.66;4439051;32;19961;-71
2022/04/17 08:59:56;;;;;;;;;;;;;;;21.48;38.07;101470.91;4428233;32;20367;-70
2022/04/17 09:02:22;;;;;;;;;;;;;;;21.64;37.61;101476.09;4427996;32;20007;-70
2022/04/17 09:04:47;;;;;;;;;;;;;;;21.78;37.42;101468.78;4425397;32;19987;-70
2022/04/17 09:07:13;;;;;;;;;;;;;;;21.04;38.69;101465.22;4425258;32;19985;-70
2022/04/17 09:09:47;;;;;;;;;;;;;;;20.59;39.47;101462.75;4425150;32;19958;-70
2022/04/17 09:12:22;;;;;;;;;;;;;;;20.27;40.18;101457.97;4431169;32;20029;-70
2022/04/17 09:14:48;;;;;;;;;;;;;;;19.97;41.14;101455.47;4433621;32;19968;-70
2022/04/17 09:17:14;;;;;;;;;;;;;;;20.00;40.98;101445.94;4428541;32;19997;-70
2022/04/17 09:19:39;;;;;;;;;;;;;;;20.14;40.71;101437.44;4431148;32;19954;-70
2022/04/17 09:22:06;;;;;;;;;;;;;;;20.55;39.76;101447.06;4423434;32;19949;-70
2022/04/17 09:24:36;;;;;;;;;;;;;;;20.31;40.74;101444.28;4422837;32;19998;-70
2022/04/17 09:27:03;;;;;;;;;;;;;;;20.57;39.67;101435.94;4419734;32;20438;-70
2022/04/17 09:29:32;;;;;;;;;;;;;;;20.51;39.18;101427.25;4426934;32;20345;-70
2022/04/17 09:37:21;;;;;;;;;;;;;;;21.87;36.28;101414.19;3966618;31;15723145;-71
2022/04/17 09:39:47;;;;;;;;;;;;;;;21.87;36.28;101414.19;4442067;32;19949;-71
2022/04/17 09:42:19;;;;;;;;;;;;;;;22.06;35.89;101401.91;4447238;32;19957;-71
2022/04/17 09:44:46;;;;;;;;;;;;;;;22.46;34.64;101407.59;4444438;32;20036;-71
2022/04/17 09:47:28;;;;;;;;;;;;;;;22.92;33.95;101398.97;4444329;32;20000;-71
2022/04/17 09:49:55;;;;;;;;;;;;;;;22.81;33.68;101393.94;4442646;32;19966;-71
2022/04/17 09:52:22;;;;;;;;;;;;;;;22.98;33.53;101391.97;4453342;32;20308;-71
2022/04/17 09:54:48;;;;;;;;;;;;;;;22.98;33.80;101382.59;4444488;32;19976;-71
2022/04/17 09:57:30;;;;;;;;;;;;;;;23.04;33.28;101392.81;4455640;32;20360;-71
2022/04/17 09:59:56;;;;;;;;;;;;;;;23.32;33.31;101382.34;4453397;32;20009;-71
2022/04/17 10:02:23;;;;;;;;;;;;;;;23.06;33.88;101378.75;4452552;32;20371;-71
2022/04/17 10:04:48;;;;;;;;;;;;;;;22.80;34.49;101374.34;4449419;32;20651;-71
2022/04/17 10:07:14;;;;;;;;;;;;;;;22.87;34.72;101368.13;4454364;32;19955;-71
2022/04/17 10:09:40;;;;;;;;;;;;;;;22.42;35.20;101363.22;4450169;32;19953;-71
2022/04/17 10:12:06;;;;;;;;;;;;;;;22.43;35.33;101361.97;4441571;32;19960;-71
2022/04/17 10:14:32;;;;;;;;;;;;;;;22.50;35.34;101358.66;4440913;32;19980;-71
2022/04/17 10:16:58;;;;;;;;;;;;;;;22.79;34.94;101358.41;4443414;32;19982;-71
2022/04/17 10:19:24;;;;;;;;;;;;;;;22.93;34.32;101352.53;4439191;32;20107;-71
2022/04/17 10:21:51;;;;;;;;;;;;;;;22.92;34.10;101350.19;4449158;32;20285;-71
2022/04/17 10:24:19;;;;;;;;;;;;;;;22.47;34.57;101351.03;4457286;32;19953;-71
2022/04/17 10:26:47;;;;;;;;;;;;;;;22.34;34.77;101344.91;4445200;32;19956;-71
2022/04/17 10:29:17;;;;;;;;;;;;;;;22.68;34.32;101343.97;4445744;32;19972;-71
2022/04/17 10:31:55;;;;;;;;;;;;;;;22.91;33.81;101328.50;4451869;32;20007;-71
2022/04/17 10:37:15;;;;;;;;;;;;;;;23.62;33.50;101328.19;3974793;31;15717461;-70
2022/04/17 10:39:45;;;;;;;;;;;;;;;23.62;33.50;101328.19;4448024;32;19961;-71
2022/04/17 10:42:11;;;;;;;;;;;;;;;23.33;33.71;101317.09;4448754;32;19976;-71
2022/04/17 10:44:41;;;;;;;;;;;;;;;23.97;32.81;101320.03;4444135;32;20323;-71
2022/04/17 10:47:06;;;;;;;;;;;;;;;24.66;31.47;101319.13;4452492;32;19965;-71
2022/04/17 10:49:32;;;;;;;;;;;;;;;24.35;31.67;101315.66;4456397;32;19975;-71
2022/04/17 10:51:59;;;;;;;;;;;;;;;24.74;30.81;101302.13;4447877;32;19961;-71
2022/04/17 10:54:45;;;;;;;;;;;;;;;25.27;30.27;101305.44;4454696;32;20076;-71
2022/04/17 10:57:10;;;;;;;;;;;;;;;25.26;29.96;101312.53;4451519;32;20304;-71
2022/04/17 10:59:36;;;;;;;;;;;;;;;25.14;30.26;101308.09;4458210;32;19990;-71
2022/04/17 11:02:05;;;;;;;;;;;;;;;25.73;29.80;101296.16;4446782;32;20306;-71
2022/04/17 11:04:31;;;;;;;;;;;;;;;25.63;30.04;101288.31;4451088;32;20286;-71
2022/04/17 11:09:44;;;;;;;;;;;;;;;26.31;29.21;101285.34;3974910;31;15718993;-71
2022/04/17 11:15:05;;;;;;;;;;;;;;;25.97;28.40;101272.44;3955184;32;15725580;-70
2022/04/17 11:17:31;;;;;;;;;;;;;;;26.13;28.42;101274.44;4426669;32;20337;-70
2022/04/17 11:19:57;;;;;;;;;;;;;;;26.34;28.06;101272.75;4426628;32;19962;-70
2022/04/17 11:22:27;;;;;;;;;;;;;;;26.94;27.47;101268.59;4438899;32;19972;-70
2022/04/17 11:27:42;;;;;;;;;;;;;;;26.26;28.69;101263.87;3957923;32;15722232;-71
2022/04/17 11:30:27;;;;;;;;;;;;;;;26.26;28.69;101263.87;4441893;32;20226;-71
2022/04/17 11:32:54;;;;;;;;;;;;;;;25.72;29.37;101244.78;4439536;32;20000;-71
2022/04/17 11:35:23;;;;;;;;;;;;;;;26.18;29.09;101242.69;4435230;32;20426;-71
2022/04/17 11:37:51;;;;;;;;;;;;;;;26.21;29.15;101244.50;4437116;32;20406;-71
2022/04/17 11:40:17;;;;;;;;;;;;;;;27.01;28.01;101233.31;4435664;32;19968;-72
2022/04/17 11:42:43;;;;;;;;;;;;;;;27.12;27.71;101233.22;4440718;32;20004;-71
2022/04/17 11:45:11;;;;;;;;;;;;;;;27.28;26.93;101240.13;4429806;32;20735;-71
2022/04/17 11:47:40;;;;;;;;;;;;;;;27.03;26.92;101230.69;4438792;32;19955;-71
2022/04/17 11:50:07;;;;;;;;;;;;;;;26.51;27.04;101241.66;4438409;32;19961;-71
2022/04/17 11:52:33;;;;;;;;;;;;;;;25.72;27.99;101228.28;4427256;32;20335;-71
2022/04/17 11:54:59;;;;;;;;;;;;;;;25.51;28.39;101218.44;4434623;32;19999;-71
2022/04/17 11:57:25;;;;;;;;;;;;;;;25.63;28.23;101219.94;4438108;32;20417;-71
2022/04/17 11:59:52;;;;;;;;;;;;;;;25.62;28.62;101208.94;4434216;32;20079;-71
2022/04/17 12:02:18;;;;;;;;;;;;;;;25.48;28.98;101198.53;4433297;32;19973;-71
2022/04/17 12:04:44;;;;;;;;;;;;;;;25.63;29.02;101198.97;4434386;32;19985;-71
2022/04/17 12:07:10;;;;;;;;;;;;;;;25.94;28.50;101196.41;4431807;32;20335;-71
2022/04/17 12:09:36;;;;;;;;;;;;;;;25.76;28.56;101193.37;4427929;32;20041;-71
2022/04/17 12:12:01;;;;;;;;;;;;;;;25.82;28.31;101194.13;4433579;32;20162;-71
2022/04/17 12:14:30;;;;;;;;;;;;;;;25.22;28.47;101188.12;4426671;32;19972;-71
2022/04/17 12:16:56;;;;;;;;;;;;;;;25.41;28.47;101179.69;4425480;32;19983;-71
2022/04/17 12:19:25;;;;;;;;;;;;;;;25.75;28.28;101178.19;4437824;32;19987;-71
2022/04/17 12:21:51;;;;;;;;;;;;;;;25.85;28.21;101187.28;4437025;32;19969;-71
2022/04/17 12:24:16;;;;;;;;;;;;;;;25.80;28.22;101174.47;4433830;32;21087;-71
2022/04/17 12:26:43;;;;;;;;;;;;;;;26.33;27.50;101168.09;4431589;32;19972;-71
2022/04/17 12:29:09;;;;;;;;;;;;;;;26.54;27.59;101165.53;4440959;32;20522;-71
2022/04/17 12:31:35;;;;;;;;;;;;;;;26.62;27.45;101164.41;4441227;32;19971;-71
2022/04/17 12:34:09;;;;;;;;;;;;;;;27.07;27.12;101158.91;4434284;32;20013;-71
2022/04/17 12:36:37;;;;;;;;;;;;;;;26.90;27.07;101159.09;4436813;32;19996;-71
2022/04/17 12:39:03;;;;;;;;;;;;;;;26.77;27.17;101152.44;4432381;32;19953;-71
2022/04/17 12:41:36;;;;;;;;;;;;;;;26.78;27.37;101139.56;4421523;32;20009;-71
2022/04/17 12:44:02;;;;;;;;;;;;;;;26.75;27.42;101152.97;4418666;32;19970;-71
2022/04/17 12:46:28;;;;;;;;;;;;;;;26.53;27.49;101146.63;4427107;32;20011;-71
2022/04/17 12:49:15;;;;;;;;;;;;;;;26.31;27.98;101138.19;4415956;32;19999;-71
2022/04/17 12:51:57;;;;;;;;;;;;;;;26.57;27.81;101133.44;4414793;32;20337;-71
2022/04/17 12:54:23;;;;;;;;;;;;;;;26.79;27.04;101130.34;4419261;32;19962;-71
2022/04/17 12:56:48;;;;;;;;;;;;;;;26.83;27.21;101141.59;4425813;32;19949;-71
2022/04/17 12:59:21;;;;;;;;;;;;;;;26.64;27.37;101120.56;4429861;32;20379;-71
2022/04/17 13:01:47;;;;;;;;;;;;;;;26.08;27.32;101114.50;4423520;32;20336;-71